createdAt,value
2023-01-11T00:00:49.753Z,4.66
2023-01-11T00:03:18.926Z,4.65
2023-01-11T00:05:46.110Z,4.69
2023-01-11T00:08:13.372Z,4.66
2023-01-11T00:10:41.041Z,4.67
2023-01-11T00:13:08.349Z,4.68
2023-01-11T00:15:38.652Z,4.67
2023-01-11T00:18:06.317Z,4.71
2023-01-11T00:20:34.147Z,4.74
2023-01-11T00:23:02.525Z,4.78
2023-01-11T00:25:31.268Z,4.81
2023-01-11T00:27:58.305Z,4.81
2023-01-11T00:30:28.148Z,4.79
2023-01-11T00:32:59.534Z,4.75
2023-01-11T00:35:28.318Z,4.74
2023-01-11T00:37:55.837Z,4.74
2023-01-11T00:40:25.115Z,4.71
2023-01-11T00:43:11.744Z,4.69
2023-01-11T00:45:57.531Z,4.68
2023-01-11T00:48:24.726Z,4.66
2023-01-11T00:50:55.419Z,4.65
2023-01-11T00:53:22.682Z,4.66
2023-01-11T00:55:52.512Z,4.62
2023-01-11T00:58:20.742Z,4.62
2023-01-11T01:00:57.440Z,4.61
2023-01-11T01:03:24.410Z,4.57
2023-01-11T01:05:56.109Z,4.56
2023-01-11T01:08:23.093Z,4.53
2023-01-11T01:10:52.588Z,4.50
2023-01-11T01:13:39.920Z,4.50
2023-01-11T01:16:07.373Z,4.48
2023-01-11T01:18:34.526Z,4.48
2023-01-11T01:21:01.577Z,4.47
2023-01-11T01:23:30.057Z,4.50
2023-01-11T01:25:57.234Z,4.50
2023-01-11T01:28:25.612Z,4.53
2023-01-11T01:30:52.808Z,4.55
2023-01-11T01:33:19.982Z,4.52
2023-01-11T01:35:47.135Z,4.54
2023-01-11T01:38:15.466Z,4.56
2023-01-11T01:40:44.205Z,4.62
2023-01-11T01:43:13.361Z,4.62
2023-01-11T01:45:43.305Z,4.62
2023-01-11T01:48:18.135Z,4.63
2023-01-11T01:50:51.672Z,4.63
2023-01-11T01:53:53.657Z,4.64
2023-01-11T01:56:30.521Z,4.60
2023-01-11T01:59:02.893Z,4.60
2023-01-11T02:01:50.529Z,4.60
2023-01-11T02:04:24.802Z,4.60
2023-01-11T02:07:09.298Z,4.59
2023-01-11T02:09:45.905Z,4.59
2023-01-11T02:12:14.400Z,4.61
2023-01-11T02:14:43.633Z,4.63
2023-01-11T02:17:12.391Z,4.64
2023-01-11T02:20:14.130Z,4.63
2023-01-11T02:23:19.530Z,4.63
2023-01-11T02:26:14.205Z,4.60
2023-01-11T02:28:47.422Z,4.61
2023-01-11T02:31:29.803Z,4.57
2023-01-11T02:34:09.271Z,4.57
2023-01-11T02:37:19.627Z,4.59
2023-01-11T02:40:08.012Z,4.57
2023-01-11T02:43:11.381Z,4.56
2023-01-11T02:45:41.618Z,4.54
2023-01-11T02:48:39.913Z,4.52
2023-01-11T02:51:23.175Z,4.53
2023-01-11T02:53:55.856Z,4.50
2023-01-11T02:56:27.399Z,4.53
2023-01-11T02:58:57.152Z,4.52
2023-01-11T03:01:28.005Z,4.50
2023-01-11T03:03:56.372Z,4.52
2023-01-11T03:06:32.348Z,4.53
2023-01-11T03:09:36.638Z,4.55
2023-01-11T03:12:36.322Z,4.59
2023-01-11T03:15:19.667Z,4.54
2023-01-11T03:17:56.645Z,4.57
2023-01-11T03:20:45.337Z,4.57
2023-01-11T03:23:43.099Z,4.58
2023-01-11T03:26:27.089Z,4.60
2023-01-11T03:29:38.888Z,4.58
2023-01-11T03:32:24.371Z,4.58
2023-01-11T03:34:59.106Z,4.57
2023-01-11T03:37:35.892Z,4.58
2023-01-11T03:40:11.194Z,4.56
2023-01-11T03:43:03.280Z,4.58
2023-01-11T03:45:35.312Z,4.57
2023-01-11T03:48:06.642Z,4.59
2023-01-11T03:50:34.511Z,4.61
2023-01-11T03:53:06.125Z,4.61
2023-01-11T03:55:39.485Z,4.62
2023-01-11T03:58:10.509Z,4.62
2023-01-11T04:00:38.661Z,4.66
2023-01-11T04:03:06.765Z,4.66
2023-01-11T04:05:37.320Z,4.69
2023-01-11T04:08:05.361Z,4.68
2023-01-11T04:10:32.768Z,4.69
2023-01-11T04:13:00.472Z,4.71
2023-01-11T04:15:27.811Z,4.71
2023-01-11T04:17:55.072Z,4.73
2023-01-11T04:20:22.321Z,4.73
2023-01-11T04:22:49.376Z,4.75
2023-01-11T04:25:16.445Z,4.73
2023-01-11T04:27:43.789Z,4.76
2023-01-11T04:30:11.644Z,4.77
2023-01-11T04:32:41.035Z,4.78
2023-01-11T04:35:09.104Z,4.79
2023-01-11T04:37:37.556Z,4.79
2023-01-11T04:40:07.513Z,4.73
2023-01-11T04:42:34.318Z,4.76
2023-01-11T04:45:02.013Z,4.77
2023-01-11T04:47:28.893Z,4.79
2023-01-11T04:49:56.798Z,4.75
2023-01-11T04:52:24.991Z,4.75
2023-01-11T04:54:52.740Z,4.78
2023-01-11T04:57:19.627Z,4.79
2023-01-11T04:59:49.032Z,4.82
2023-01-11T05:02:16.077Z,4.87
2023-01-11T05:04:43.343Z,4.89
2023-01-11T05:07:10.932Z,4.94
2023-01-11T05:09:38.366Z,4.97
2023-01-11T05:12:05.356Z,5.02
2023-01-11T05:14:34.696Z,5.05
2023-01-11T05:17:02.833Z,5.05
2023-01-11T05:19:31.492Z,5.08
2023-01-11T05:21:58.381Z,5.12
2023-01-11T05:24:25.211Z,5.12
2023-01-11T05:26:53.457Z,5.14
2023-01-11T05:29:23.080Z,5.12
2023-01-11T05:31:50.167Z,5.13
2023-01-11T05:34:18.261Z,5.18
2023-01-11T05:36:46.171Z,5.16
2023-01-11T05:39:14.423Z,5.19
2023-01-11T05:41:41.347Z,5.21
2023-01-11T05:44:30.745Z,5.22
2023-01-11T05:46:58.062Z,5.27
2023-01-11T05:49:25.120Z,5.29
2023-01-11T05:51:52.743Z,5.30
2023-01-11T05:54:20.017Z,5.30
2023-01-11T05:56:47.078Z,5.27
2023-01-11T05:59:14.106Z,5.25
2023-01-11T06:01:41.235Z,5.25
2023-01-11T06:04:08.696Z,5.27
2023-01-11T06:06:35.814Z,5.29
2023-01-11T06:09:03.081Z,5.30
2023-01-11T06:11:30.066Z,5.31
2023-01-11T06:13:57.126Z,5.33
2023-01-11T06:16:24.307Z,5.34
2023-01-11T06:18:52.798Z,5.35
2023-01-11T06:21:21.272Z,5.34
2023-01-11T06:23:53.354Z,5.36
2023-01-11T06:26:22.471Z,5.38
2023-01-11T06:28:49.949Z,5.41
2023-01-11T06:31:18.132Z,5.44
2023-01-11T06:33:46.307Z,5.47
2023-01-11T06:36:14.107Z,5.49
2023-01-11T06:38:42.096Z,5.49
2023-01-11T06:41:10.688Z,5.50
2023-01-11T06:43:41.899Z,5.51
2023-01-11T06:46:14.313Z,5.51
2023-01-11T06:48:41.553Z,5.51
2023-01-11T06:51:11.155Z,5.54
2023-01-11T06:53:38.778Z,5.53
2023-01-11T06:56:06.211Z,5.54
2023-01-11T06:58:33.260Z,5.54
2023-01-11T07:01:00.499Z,5.56
2023-01-11T07:03:27.799Z,5.56
2023-01-11T07:05:59.658Z,5.55
2023-01-11T07:08:27.117Z,5.56
2023-01-11T07:10:54.903Z,5.56
2023-01-11T07:13:22.635Z,5.59
2023-01-11T07:15:51.933Z,5.60
2023-01-11T07:18:20.021Z,5.63
2023-01-11T07:20:47.514Z,5.65
2023-01-11T07:23:14.619Z,5.68
2023-01-11T07:25:41.577Z,5.70
2023-01-11T07:28:09.874Z,5.72
2023-01-11T07:30:56.817Z,5.74
2023-01-11T07:33:26.429Z,5.75
2023-01-11T07:35:53.572Z,5.75
2023-01-11T07:38:21.906Z,5.75
2023-01-11T07:40:50.722Z,5.75
2023-01-11T07:43:23.708Z,5.76
2023-01-11T07:45:55.173Z,5.73
2023-01-11T07:48:26.514Z,5.74
2023-01-11T07:50:56.853Z,5.73
2023-01-11T07:53:26.558Z,5.72
2023-01-11T07:55:56.621Z,5.74
2023-01-11T07:58:24.384Z,5.72
2023-01-11T08:00:51.671Z,5.74
2023-01-11T08:03:21.356Z,5.76
2023-01-11T08:05:52.749Z,5.78
2023-01-11T08:08:20.994Z,5.79
2023-01-11T08:11:07.976Z,5.81
2023-01-11T08:13:54.173Z,5.82
2023-01-11T08:16:21.131Z,5.83
2023-01-11T08:18:53.197Z,5.84
2023-01-11T08:21:24.541Z,5.86
2023-01-11T08:23:55.360Z,5.89
2023-01-11T08:26:24.922Z,5.90
2023-01-11T08:28:59.699Z,5.93
2023-01-11T08:31:26.837Z,5.94
2023-01-11T08:33:53.874Z,5.95
2023-01-11T08:36:21.020Z,5.97
2023-01-11T08:38:48.484Z,5.99
2023-01-11T08:41:16.676Z,5.99
2023-01-11T08:43:43.830Z,6.01
2023-01-11T08:46:11.253Z,6.01
2023-01-11T08:48:38.356Z,6.03
2023-01-11T08:51:06.015Z,6.04
2023-01-11T08:53:38.624Z,6.06
2023-01-11T08:56:05.929Z,6.08
2023-01-11T08:58:34.297Z,6.11
2023-01-11T09:01:03.962Z,6.12
2023-01-11T09:03:31.428Z,6.13
2023-01-11T09:05:58.545Z,6.15
2023-01-11T09:08:31.707Z,6.19
2023-01-11T09:11:00.237Z,6.20
2023-01-11T09:13:28.775Z,6.24
2023-01-11T09:15:57.775Z,6.26
2023-01-11T09:18:28.905Z,6.32
2023-01-11T09:20:58.257Z,6.37
2023-01-11T09:23:26.641Z,6.39
2023-01-11T09:25:56.428Z,6.44
2023-01-11T09:28:23.438Z,6.45
2023-01-11T09:30:54.247Z,6.48
2023-01-11T09:33:21.697Z,6.51
2023-01-11T09:35:49.421Z,6.53
2023-01-11T09:38:16.472Z,6.56
2023-01-11T09:41:04.711Z,6.59
2023-01-11T09:43:38.898Z,6.58
2023-01-11T09:46:09.422Z,6.65
2023-01-11T09:48:44.394Z,6.66
2023-01-11T09:51:19.246Z,6.72
2023-01-11T09:53:52.433Z,6.75
2023-01-11T09:56:28.706Z,6.80
2023-01-11T09:59:00.175Z,6.82
2023-01-11T10:01:42.819Z,6.87
2023-01-11T10:04:16.469Z,6.90
2023-01-11T10:06:50.268Z,6.92
2023-01-11T10:18:32.374Z,7.01
2023-01-11T10:18:58.885Z,7.04
2023-01-11T10:21:32.095Z,7.05
2023-01-11T10:24:12.465Z,7.08
2023-01-11T10:26:40.466Z,7.09
2023-01-11T10:29:40.234Z,7.12
2023-01-11T10:32:40.459Z,7.14
2023-01-11T10:35:31.550Z,7.16
2023-01-11T10:38:21.859Z,7.17
2023-01-11T10:41:08.588Z,7.18
2023-01-11T10:43:42.683Z,7.23
2023-01-11T10:46:23.669Z,7.27
2023-01-11T10:49:03.878Z,7.29
2023-01-11T10:51:39.265Z,7.31
2023-01-11T10:54:17.823Z,7.33
2023-01-11T10:57:20.719Z,7.36
2023-01-11T11:00:12.563Z,7.39
2023-01-11T11:03:17.125Z,7.40
2023-01-11T11:05:53.832Z,7.43
2023-01-11T11:08:32.343Z,7.46
2023-01-11T11:11:06.042Z,7.46
2023-01-11T11:13:56.852Z,7.46
2023-01-11T11:16:24.025Z,7.47
2023-01-11T11:18:52.410Z,7.48
2023-01-11T11:21:28.744Z,7.51
2023-01-11T11:24:03.946Z,7.51
2023-01-11T11:26:41.734Z,7.52
2023-01-11T11:29:11.302Z,7.53
2023-01-11T11:31:44.252Z,7.56
2023-01-11T11:34:20.953Z,7.57
2023-01-11T11:36:52.179Z,7.58
2023-01-11T11:39:31.294Z,7.58
2023-01-11T11:42:15.487Z,7.60
2023-01-11T11:44:42.631Z,7.60
2023-01-11T11:47:17.058Z,7.61
2023-01-11T11:49:44.081Z,7.65
2023-01-11T11:52:17.835Z,7.61
2023-01-11T11:54:57.142Z,7.64
2023-01-11T11:57:28.235Z,7.63
2023-01-11T12:00:11.305Z,7.63
2023-01-11T12:02:48.929Z,7.64
2023-01-11T12:05:16.181Z,7.64
2023-01-11T12:07:54.694Z,7.64
2023-01-11T12:10:25.574Z,7.66
2023-01-11T12:12:55.899Z,7.66
2023-01-11T12:15:32.044Z,7.68
2023-01-11T12:18:25.071Z,7.70
2023-01-11T12:20:52.692Z,7.67
2023-01-11T12:23:21.893Z,7.69
2023-01-11T12:25:54.762Z,7.72
2023-01-11T12:28:28.369Z,7.72
2023-01-11T12:31:20.160Z,7.72
2023-01-11T12:33:49.708Z,7.72
2023-01-11T12:36:22.668Z,7.71
2023-01-11T12:39:05.266Z,7.69
2023-01-11T12:41:44.483Z,7.71
2023-01-11T12:44:35.488Z,7.70
2023-01-11T12:47:28.524Z,7.69
2023-01-11T12:50:12.626Z,7.69
2023-01-11T12:52:39.457Z,7.69
2023-01-11T12:55:30.592Z,7.74
2023-01-11T12:58:08.243Z,7.72
2023-01-11T13:00:46.153Z,7.72
2023-01-11T13:03:16.104Z,7.74
2023-01-11T13:06:01.059Z,7.72
2023-01-11T13:08:53.435Z,7.72
2023-01-11T13:11:36.945Z,7.74
2023-01-11T13:14:41.136Z,7.76
2023-01-11T13:17:16.099Z,7.75
2023-01-11T13:19:51.999Z,7.78
2023-01-11T13:22:23.475Z,7.77
2023-01-11T13:24:51.543Z,7.76
2023-01-11T13:27:25.216Z,7.81
2023-01-11T13:29:55.439Z,7.81
2023-01-11T13:32:26.554Z,7.81
2023-01-11T13:35:21.591Z,7.84
2023-01-11T13:37:59.444Z,7.84
2023-01-11T13:40:41.747Z,7.85
2023-01-11T13:43:23.305Z,7.85
2023-01-11T13:45:57.903Z,7.82
2023-01-11T13:48:29.100Z,7.87
2023-01-11T13:51:14.374Z,7.87
2023-01-11T13:53:59.329Z,7.89
2023-01-11T13:56:34.641Z,7.91
2023-01-11T13:59:05.281Z,7.93
2023-01-11T14:01:46.701Z,7.95
2023-01-11T14:04:26.885Z,7.97
2023-01-11T14:07:12.440Z,7.99
2023-01-11T14:09:58.884Z,8.00
2023-01-11T14:12:53.270Z,8.02
2023-01-11T14:15:26.727Z,8.03
2023-01-11T14:17:56.496Z,8.03
2023-01-11T14:20:42.035Z,8.04
2023-01-11T14:23:21.402Z,8.07
2023-01-11T14:26:00.819Z,8.09
2023-01-11T14:28:39.843Z,8.09
2023-01-11T14:31:29.448Z,8.11
2023-01-11T14:34:09.309Z,8.11
2023-01-11T14:36:39.068Z,8.13
2023-01-11T14:39:27.392Z,8.13
2023-01-11T14:42:18.861Z,8.14
2023-01-11T14:45:19.824Z,8.14
2023-01-11T14:48:09.635Z,8.15
2023-01-11T14:51:07.859Z,8.16
2023-01-11T14:53:46.156Z,8.15
2023-01-11T14:56:37.442Z,8.17
2023-01-11T14:59:07.400Z,8.17
2023-01-11T15:02:05.489Z,8.20
2023-01-11T15:04:51.771Z,8.21
2023-01-11T15:07:24.170Z,8.24
2023-01-11T15:09:57.542Z,8.24
2023-01-11T15:12:34.389Z,8.26
2023-01-11T15:15:14.495Z,8.27
2023-01-11T15:18:00.811Z,8.27
2023-01-11T15:20:28.881Z,8.27
2023-01-11T15:23:01.739Z,8.28
2023-01-11T15:25:33.609Z,8.28
2023-01-11T15:28:25.563Z,8.30
2023-01-11T15:30:53.148Z,8.30
2023-01-11T15:33:20.448Z,8.31
2023-01-11T15:35:56.435Z,8.31
2023-01-11T15:38:42.786Z,8.30
2023-01-11T15:41:35.805Z,8.30
2023-01-11T15:44:21.356Z,8.32
2023-01-11T15:47:17.889Z,8.33
2023-01-11T15:50:38.822Z,8.34
2023-01-11T15:53:33.188Z,8.34
2023-01-11T15:56:15.436Z,8.34
2023-01-11T15:59:01.981Z,8.35
2023-01-11T16:01:30.121Z,8.35
2023-01-11T16:04:21.463Z,8.37
2023-01-11T16:06:58.881Z,8.36
2023-01-11T16:09:50.584Z,8.38
2023-01-11T16:12:35.975Z,8.38
2023-01-11T16:15:15.720Z,8.39
2023-01-11T16:17:46.264Z,8.40
2023-01-11T16:20:20.285Z,8.40
2023-01-11T16:22:57.138Z,8.41
2023-01-11T16:25:29.101Z,8.42
2023-01-11T16:27:58.717Z,8.44
2023-01-11T16:30:27.499Z,8.42
2023-01-11T16:33:14.154Z,8.41
2023-01-11T16:35:41.321Z,8.41
2023-01-11T16:38:18.166Z,8.33
2023-01-11T16:40:52.849Z,8.39
2023-01-11T16:43:30.310Z,8.40
2023-01-11T16:45:57.464Z,8.40
2023-01-11T16:48:31.452Z,8.39
2023-01-11T16:51:17.211Z,8.39
2023-01-11T16:53:53.610Z,8.39
2023-01-11T16:56:22.500Z,8.41
2023-01-11T16:59:07.743Z,8.41
2023-01-11T17:01:54.402Z,8.41
2023-01-11T17:04:41.083Z,8.41
2023-01-11T17:07:29.489Z,8.44
2023-01-11T17:10:21.336Z,8.43
2023-01-11T17:13:45.590Z,8.38
2023-01-11T17:16:15.917Z,8.40
2023-01-11T17:18:44.111Z,8.39
2023-01-11T17:21:28.766Z,8.39
2023-01-11T17:24:00.949Z,8.39
2023-01-11T17:26:30.921Z,8.40
2023-01-11T17:28:59.800Z,8.41
2023-01-11T17:31:31.162Z,8.41
2023-01-11T17:34:01.260Z,8.43
2023-01-11T17:36:29.450Z,8.42
2023-01-11T17:38:58.161Z,8.43
2023-01-11T17:41:50.015Z,8.43
2023-01-11T17:44:43.616Z,8.43
2023-01-11T17:47:13.023Z,8.39
2023-01-11T17:49:40.483Z,8.38
2023-01-11T17:52:19.513Z,8.39
2023-01-11T17:54:46.776Z,8.36
2023-01-11T17:57:13.947Z,8.34
2023-01-11T17:59:40.962Z,8.34
2023-01-11T18:02:15.115Z,8.30
2023-01-11T18:04:43.073Z,8.29
2023-01-11T18:07:18.854Z,8.27
2023-01-11T18:09:52.162Z,8.24
2023-01-11T18:12:19.027Z,8.22
2023-01-11T18:14:57.050Z,8.19
2023-01-11T18:17:32.988Z,8.18
2023-01-11T18:20:01.651Z,8.14
2023-01-11T18:22:33.273Z,8.14
2023-01-11T18:25:04.773Z,8.14
2023-01-11T18:27:34.207Z,8.12
2023-01-11T18:30:06.390Z,8.11
2023-01-11T18:32:40.985Z,8.10
2023-01-11T18:35:20.344Z,8.11
2023-01-11T18:37:48.118Z,8.11
2023-01-11T18:40:16.842Z,8.10
2023-01-11T18:42:47.655Z,8.07
2023-01-11T18:45:15.571Z,8.05
2023-01-11T18:47:42.856Z,8.03
2023-01-11T18:50:13.780Z,8.00
2023-01-11T18:52:40.914Z,7.99
2023-01-11T18:55:11.989Z,7.95
2023-01-11T18:57:39.113Z,7.91
2023-01-11T19:00:06.902Z,7.90
2023-01-11T19:02:42.557Z,7.89
2023-01-11T19:05:18.814Z,7.92
2023-01-11T19:07:46.480Z,7.93
2023-01-11T19:10:23.829Z,7.96
2023-01-11T19:12:50.800Z,7.97
2023-01-11T19:15:17.959Z,7.97
2023-01-11T19:17:45.007Z,7.98
2023-01-11T19:20:14.174Z,7.98
2023-01-11T19:22:42.184Z,7.98
2023-01-11T19:25:09.816Z,7.96
2023-01-11T19:27:38.214Z,7.97
2023-01-11T19:30:06.609Z,7.99
2023-01-11T19:32:33.799Z,7.99
2023-01-11T19:35:01.654Z,7.99
2023-01-11T19:37:30.197Z,7.94
2023-01-11T19:39:57.641Z,7.90
2023-01-11T19:42:24.607Z,7.86
2023-01-11T19:44:53.686Z,7.83
2023-01-11T19:47:20.962Z,7.78
2023-01-11T19:49:48.094Z,7.77
2023-01-11T19:52:19.335Z,7.75
2023-01-11T19:54:46.942Z,7.72
2023-01-11T19:57:18.118Z,7.69
2023-01-11T19:59:45.175Z,7.65
2023-01-11T20:02:13.725Z,7.63
2023-01-11T20:04:41.636Z,7.59
2023-01-11T20:07:10.233Z,7.56
2023-01-11T20:09:39.167Z,7.52
2023-01-11T20:12:08.436Z,7.47
2023-01-11T20:14:36.489Z,7.45
2023-01-11T20:17:03.673Z,7.43
2023-01-11T20:19:30.668Z,7.39
2023-01-11T20:21:57.725Z,7.34
2023-01-11T20:24:28.665Z,7.32
2023-01-11T20:26:57.320Z,7.29
2023-01-11T20:29:24.393Z,7.25
2023-01-11T20:31:51.484Z,7.21
2023-01-11T20:34:19.049Z,7.18
2023-01-11T20:36:46.274Z,7.17
2023-01-11T20:39:13.341Z,7.14
2023-01-11T20:41:54.157Z,7.12
2023-01-11T20:44:27.463Z,7.07
2023-01-11T20:46:56.476Z,7.05
2023-01-11T20:49:25.961Z,7.03
2023-01-11T20:51:53.492Z,7.03
2023-01-11T20:54:21.102Z,6.99
2023-01-11T20:56:48.141Z,6.94
2023-01-11T20:59:17.549Z,6.89
2023-01-11T21:01:44.646Z,6.86
2023-01-11T21:04:12.547Z,6.80
2023-01-11T21:06:44.286Z,6.77
2023-01-11T21:09:14.633Z,6.72
2023-01-11T21:11:42.172Z,6.68
2023-01-11T21:14:12.291Z,6.65
2023-01-11T21:16:44.440Z,6.65
2023-01-11T21:19:13.097Z,6.66
2023-01-11T21:21:40.886Z,6.66
2023-01-11T21:24:08.762Z,6.65
2023-01-11T21:26:36.125Z,6.67
2023-01-11T21:29:05.312Z,6.67
2023-01-11T21:31:35.044Z,6.66
2023-01-11T21:34:02.381Z,6.70
2023-01-11T21:36:31.708Z,6.69
2023-01-11T21:38:59.764Z,6.65
2023-01-11T21:41:48.649Z,6.65
2023-01-11T21:44:16.858Z,6.68
2023-01-11T21:46:44.627Z,6.66
2023-01-11T21:49:12.378Z,6.64
2023-01-11T21:51:40.382Z,6.60
2023-01-11T21:54:10.239Z,6.59
2023-01-11T21:56:38.962Z,6.57
2023-01-11T21:59:05.972Z,6.57
2023-01-11T22:01:33.044Z,6.57
2023-01-11T22:04:00.154Z,6.58
2023-01-11T22:06:27.056Z,6.60
2023-01-11T22:08:54.306Z,6.61
2023-01-11T22:11:21.329Z,6.62
2023-01-11T22:13:48.247Z,6.63
2023-01-11T22:16:18.057Z,6.62
2023-01-11T22:18:45.887Z,6.63
2023-01-11T22:21:18.271Z,6.64
2023-01-11T22:23:46.902Z,6.64
2023-01-11T22:26:16.382Z,6.66
2023-01-11T22:29:03.423Z,6.64
2023-01-11T22:31:31.533Z,6.63
2023-01-11T22:34:01.891Z,6.62
2023-01-11T22:36:29.475Z,6.61
2023-01-11T22:38:56.788Z,6.60
2023-01-11T22:41:26.050Z,6.57
2023-01-11T22:43:55.556Z,6.52
2023-01-11T22:46:25.354Z,6.52
2023-01-11T22:48:52.899Z,6.50
2023-01-11T22:51:22.434Z,6.48
2023-01-11T22:53:51.166Z,6.48
2023-01-11T22:56:20.383Z,6.50
2023-01-11T22:58:48.639Z,6.52
2023-01-11T23:01:19.879Z,6.54
2023-01-11T23:03:47.527Z,6.56
2023-01-11T23:06:32.682Z,6.59
2023-01-11T23:08:59.926Z,6.61
2023-01-11T23:11:48.371Z,6.63
2023-01-11T23:14:17.889Z,6.63
2023-01-11T23:16:46.423Z,6.62
2023-01-11T23:19:16.110Z,6.61
2023-01-11T23:21:44.960Z,6.57
2023-01-11T23:24:13.684Z,6.54
2023-01-11T23:26:41.125Z,6.54
2023-01-11T23:29:08.220Z,6.54
2023-01-11T23:31:35.831Z,6.52
2023-01-11T23:34:04.515Z,6.49
2023-01-11T23:36:34.127Z,6.46
2023-01-11T23:39:01.504Z,6.46
2023-01-11T23:41:47.653Z,6.45
2023-01-11T23:44:17.024Z,6.44
2023-01-11T23:47:03.124Z,6.43
2023-01-11T23:49:31.550Z,6.43
2023-01-11T23:51:59.557Z,6.42
2023-01-11T23:54:29.386Z,6.44
2023-01-11T23:56:57.536Z,6.43
2023-01-11T23:59:24.876Z,6.43
